sensor_id;sensor_type;location;lat;lon;timestamp;pressure;altitude;pressure_sealevel;temperature;humidity
15193;BME280;7697;51.630;7.484;2022-07-06T00:01:33;101715.63;;;18.00;66.85
15193;BME280;7697;51.630;7.484;2022-07-06T00:06:38;101723.13;;;17.92;66.99
15193;BME280;7697;51.630;7.484;2022-07-06T00:11:40;101715.78;;;17.81;67.28
15193;BME280;7697;51.630;7.484;2022-07-06T00:16:42;101708.84;;;17.73;67.35
15193;BME280;7697;51.630;7.484;2022-07-06T00:21:45;101711.19;;;17.63;67.60
15193;BME280;7697;51.630;7.484;2022-07-06T00:26:47;101716.78;;;17.55;68.12
15193;BME280;7697;51.630;7.484;2022-07-06T00:31:49;101722.41;;;17.47;67.93
15193;BME280;7697;51.630;7.484;2022-07-06T00:36:52;101712.78;;;17.39;68.20
15193;BME280;7697;51.630;7.484;2022-07-06T00:41:53;101725.00;;;17.29;68.22
15193;BME280;7697;51.630;7.484;2022-07-06T00:46:55;101713.50;;;17.21;68.28
15193;BME280;7697;51.630;7.484;2022-07-06T00:51:58;101712.31;;;17.17;68.18
15193;BME280;7697;51.630;7.484;2022-07-06T00:57:00;101714.78;;;17.12;68.51
15193;BME280;7697;51.630;7.484;2022-07-06T01:02:03;101720.56;;;17.09;68.63
15193;BME280;7697;51.630;7.484;2022-07-06T01:07:06;101728.44;;;17.04;68.72
15193;BME280;7697;51.630;7.484;2022-07-06T01:12:08;101719.63;;;16.97;68.88
15193;BME280;7697;51.630;7.484;2022-07-06T01:17:10;101722.31;;;16.91;69.36
15193;BME280;7697;51.630;7.484;2022-07-06T01:22:13;101724.19;;;16.83;69.34
15193;BME280;7697;51.630;7.484;2022-07-06T01:27:15;101731.63;;;16.75;69.30
15193;BME280;7697;51.630;7.484;2022-07-06T01:32:16;101731.66;;;16.68;69.56
15193;BME280;7697;51.630;7.484;2022-07-06T01:37:20;101722.19;;;16.66;69.57
15193;BME280;7697;51.630;7.484;2022-07-06T01:42:22;101714.59;;;16.63;69.70
15193;BME280;7697;51.630;7.484;2022-07-06T01:47:23;101710.03;;;16.57;70.10
15193;BME280;7697;51.630;7.484;2022-07-06T01:52:27;101701.22;;;16.49;70.25
15193;BME280;7697;51.630;7.484;2022-07-06T01:57:29;101707.22;;;16.45;70.22
15193;BME280;7697;51.630;7.484;2022-07-06T02:02:32;101708.88;;;16.39;70.40
15193;BME280;7697;51.630;7.484;2022-07-06T02:07:35;101703.75;;;16.31;70.49
15193;BME280;7697;51.630;7.484;2022-07-06T02:12:37;101704.16;;;16.22;70.83
15193;BME280;7697;51.630;7.484;2022-07-06T02:17:39;101702.53;;;16.14;70.48
15193;BME280;7697;51.630;7.484;2022-07-06T02:22:42;101702.13;;;16.04;71.26
15193;BME280;7697;51.630;7.484;2022-07-06T02:27:43;101704.19;;;15.95;71.28
15193;BME280;7697;51.630;7.484;2022-07-06T02:32:45;101702.56;;;15.88;71.24
15193;BME280;7697;51.630;7.484;2022-07-06T02:37:48;101704.44;;;15.81;71.73
15193;BME280;7697;51.630;7.484;2022-07-06T02:42:50;101697.66;;;15.71;71.86
15193;BME280;7697;51.630;7.484;2022-07-06T02:47:52;101697.84;;;15.63;71.80
15193;BME280;7697;51.630;7.484;2022-07-06T02:52:57;101708.28;;;15.52;71.94
15193;BME280;7697;51.630;7.484;2022-07-06T02:58:01;101712.78;;;15.38;72.40
15193;BME280;7697;51.630;7.484;2022-07-06T03:03:02;101709.69;;;15.34;72.91
15193;BME280;7697;51.630;7.484;2022-07-06T03:08:06;101715.22;;;15.33;73.46
15193;BME280;7697;51.630;7.484;2022-07-06T03:13:07;101722.19;;;15.27;73.01
15193;BME280;7697;51.630;7.484;2022-07-06T03:18:10;101722.59;;;15.18;73.95
15193;BME280;7697;51.630;7.484;2022-07-06T03:23:13;101726.47;;;15.15;74.24
15193;BME280;7697;51.630;7.484;2022-07-06T03:28:15;101727.69;;;15.13;74.13
15193;BME280;7697;51.630;7.484;2022-07-06T03:33:17;101732.00;;;15.14;74.32
15193;BME280;7697;51.630;7.484;2022-07-06T03:38:20;101745.53;;;15.12;74.11
15193;BME280;7697;51.630;7.484;2022-07-06T03:43:22;101744.28;;;15.01;74.05
15193;BME280;7697;51.630;7.484;2022-07-06T03:48:23;101741.81;;;14.93;73.99
15193;BME280;7697;51.630;7.484;2022-07-06T03:53:27;101730.25;;;14.86;74.62
15193;BME280;7697;51.630;7.484;2022-07-06T03:58:28;101730.88;;;14.88;74.61
15193;BME280;7697;51.630;7.484;2022-07-06T04:03:30;101726.19;;;14.97;75.06
15193;BME280;7697;51.630;7.484;2022-07-06T04:08:33;101732.16;;;14.99;74.50
15193;BME280;7697;51.630;7.484;2022-07-06T04:13:35;101736.47;;;15.00;74.89
15193;BME280;7697;51.630;7.484;2022-07-06T04:18:37;101736.88;;;15.03;74.74
15193;BME280;7697;51.630;7.484;2022-07-06T04:23:40;101734.84;;;15.06;74.54
15193;BME280;7697;51.630;7.484;2022-07-06T04:28:42;101735.66;;;15.06;75.07
15193;BME280;7697;51.630;7.484;2022-07-06T04:33:44;101739.78;;;15.09;74.62
15193;BME280;7697;51.630;7.484;2022-07-06T04:38:47;101739.19;;;15.13;74.99
15193;BME280;7697;51.630;7.484;2022-07-06T04:43:49;101734.91;;;15.19;75.66
15193;BME280;7697;51.630;7.484;2022-07-06T04:48:50;101735.72;;;15.19;75.25
15193;BME280;7697;51.630;7.484;2022-07-06T04:53:53;101728.56;;;15.26;75.61
15193;BME280;7697;51.630;7.484;2022-07-06T04:58:55;101740.91;;;15.34;75.87
15193;BME280;7697;51.630;7.484;2022-07-06T05:03:57;101730.03;;;15.42;76.15
15193;BME280;7697;51.630;7.484;2022-07-06T05:09:00;101731.69;;;15.50;76.55
15193;BME280;7697;51.630;7.484;2022-07-06T05:14:02;101733.78;;;15.54;76.88
15193;BME280;7697;51.630;7.484;2022-07-06T05:19:04;101733.34;;;15.57;77.11
15193;BME280;7697;51.630;7.484;2022-07-06T05:24:07;101735.63;;;15.60;77.60
15193;BME280;7697;51.630;7.484;2022-07-06T05:29:09;101739.13;;;15.61;77.64
15193;BME280;7697;51.630;7.484;2022-07-06T05:34:11;101741.22;;;15.65;78.24
15193;BME280;7697;51.630;7.484;2022-07-06T05:39:14;101741.59;;;15.75;77.69
15193;BME280;7697;51.630;7.484;2022-07-06T05:44:19;101748.00;;;15.81;78.15
15193;BME280;7697;51.630;7.484;2022-07-06T05:49:21;101746.97;;;15.89;78.39
15193;BME280;7697;51.630;7.484;2022-07-06T05:54:41;101749.63;;;16.02;78.23
15193;BME280;7697;51.630;7.484;2022-07-06T05:59:43;101752.31;;;16.15;77.70
15193;BME280;7697;51.630;7.484;2022-07-06T06:04:45;101754.34;;;16.26;77.83
15193;BME280;7697;51.630;7.484;2022-07-06T06:09:48;101769.75;;;16.44;77.76
15193;BME280;7697;51.630;7.484;2022-07-06T06:14:50;101764.56;;;16.56;77.40
15193;BME280;7697;51.630;7.484;2022-07-06T06:19:52;101766.22;;;16.70;77.08
15193;BME280;7697;51.630;7.484;2022-07-06T06:24:55;101777.94;;;16.75;76.65
15193;BME280;7697;51.630;7.484;2022-07-06T06:29:57;101784.28;;;16.87;76.52
15193;BME280;7697;51.630;7.484;2022-07-06T06:34:58;101782.78;;;17.05;75.79
15193;BME280;7697;51.630;7.484;2022-07-06T06:40:02;101781.94;;;17.17;75.50
15193;BME280;7697;51.630;7.484;2022-07-06T06:45:05;101781.44;;;17.27;75.28
15193;BME280;7697;51.630;7.484;2022-07-06T06:50:07;101782.84;;;17.36;74.11
15193;BME280;7697;51.630;7.484;2022-07-06T06:55:10;101781.13;;;17.48;74.29
15193;BME280;7697;51.630;7.484;2022-07-06T07:00:13;101795.31;;;17.62;73.74
15193;BME280;7697;51.630;7.484;2022-07-06T07:05:15;101798.38;;;17.66;73.27
15193;BME280;7697;51.630;7.484;2022-07-06T07:10:18;101793.09;;;17.84;72.71
15193;BME280;7697;51.630;7.484;2022-07-06T07:15:21;101798.94;;;17.99;72.58
15193;BME280;7697;51.630;7.484;2022-07-06T07:20:24;101783.47;;;18.26;71.86
15193;BME280;7697;51.630;7.484;2022-07-06T07:25:28;101786.19;;;18.44;71.10
15193;BME280;7697;51.630;7.484;2022-07-06T07:30:31;101794.91;;;18.64;70.60
15193;BME280;7697;51.630;7.484;2022-07-06T07:35:33;101791.03;;;18.79;69.67
15193;BME280;7697;51.630;7.484;2022-07-06T07:40:37;101801.72;;;18.85;68.29
15193;BME280;7697;51.630;7.484;2022-07-06T07:45:39;101809.81;;;18.97;67.91
15193;BME280;7697;51.630;7.484;2022-07-06T07:50:42;101804.53;;;19.08;68.15
15193;BME280;7697;51.630;7.484;2022-07-06T07:55:45;101806.22;;;19.39;68.33
15193;BME280;7697;51.630;7.484;2022-07-06T08:00:47;101810.16;;;19.55;67.31
15193;BME280;7697;51.630;7.484;2022-07-06T08:05:49;101807.84;;;19.70;66.58
15193;BME280;7697;51.630;7.484;2022-07-06T08:10:52;101812.06;;;19.66;65.62
15193;BME280;7697;51.630;7.484;2022-07-06T08:15:54;101804.03;;;19.78;65.86
15193;BME280;7697;51.630;7.484;2022-07-06T08:20:55;101809.22;;;19.61;64.45
15193;BME280;7697;51.630;7.484;2022-07-06T08:25:59;101803.03;;;19.61;65.53
15193;BME280;7697;51.630;7.484;2022-07-06T08:31:00;101814.91;;;19.83;66.19
15193;BME280;7697;51.630;7.484;2022-07-06T08:36:03;101799.47;;;19.78;63.20
15193;BME280;7697;51.630;7.484;2022-07-06T08:41:06;101797.94;;;19.71;63.32
15193;BME280;7697;51.630;7.484;2022-07-06T08:46:08;101803.53;;;19.69;63.53
15193;BME280;7697;51.630;7.484;2022-07-06T08:51:12;101802.41;;;19.77;62.81
15193;BME280;7697;51.630;7.484;2022-07-06T08:56:16;101804.81;;;19.67;62.23
15193;BME280;7697;51.630;7.484;2022-07-06T09:01:19;101805.66;;;19.79;61.85
15193;BME280;7697;51.630;7.484;2022-07-06T09:06:24;101799.28;;;19.92;62.46
15193;BME280;7697;51.630;7.484;2022-07-06T09:11:27;101805.53;;;20.27;62.26
15193;BME280;7697;51.630;7.484;2022-07-06T09:16:29;101814.34;;;20.46;59.08
15193;BME280;7697;51.630;7.484;2022-07-06T09:21:33;101807.66;;;20.60;59.36
15193;BME280;7697;51.630;7.484;2022-07-06T09:26:39;101804.94;;;20.72;57.13
15193;BME280;7697;51.630;7.484;2022-07-06T09:31:41;101799.69;;;20.65;56.06
15193;BME280;7697;51.630;7.484;2022-07-06T09:36:44;101792.78;;;20.69;56.54
15193;BME280;7697;51.630;7.484;2022-07-06T09:41:49;101802.13;;;20.78;54.60
15193;BME280;7697;51.630;7.484;2022-07-06T09:46:53;101804.00;;;20.78;52.90
15193;BME280;7697;51.630;7.484;2022-07-06T09:51:58;101798.97;;;21.61;52.81
15193;BME280;7697;51.630;7.484;2022-07-06T09:57:02;101795.78;;;22.10;48.33
15193;BME280;7697;51.630;7.484;2022-07-06T10:02:06;101795.91;;;22.20;47.57
15193;BME280;7697;51.630;7.484;2022-07-06T10:07:08;101791.84;;;22.56;48.74
15193;BME280;7697;51.630;7.484;2022-07-06T10:12:13;101785.34;;;22.73;47.79
15193;BME280;7697;51.630;7.484;2022-07-06T10:17:17;101786.72;;;23.14;46.87
15193;BME280;7697;51.630;7.484;2022-07-06T10:22:20;101793.09;;;23.30;47.35
15193;BME280;7697;51.630;7.484;2022-07-06T10:27:24;101786.94;;;23.88;47.82
15193;BME280;7697;51.630;7.484;2022-07-06T10:32:28;101781.53;;;23.88;45.64
15193;BME280;7697;51.630;7.484;2022-07-06T10:37:30;101777.00;;;23.67;44.91
15193;BME280;7697;51.630;7.484;2022-07-06T10:42:41;101780.06;;;23.76;45.94
15193;BME280;7697;51.630;7.484;2022-07-06T10:47:43;101785.16;;;23.72;45.56
15193;BME280;7697;51.630;7.484;2022-07-06T10:52:57;101776.06;;;23.51;44.08
15193;BME280;7697;51.630;7.484;2022-07-06T10:58:02;101777.25;;;23.39;45.89
15193;BME280;7697;51.630;7.484;2022-07-06T11:03:35;101773.81;;;23.00;45.61
15193;BME280;7697;51.630;7.484;2022-07-06T11:08:58;101784.97;;;23.03;47.15
15193;BME280;7697;51.630;7.484;2022-07-06T11:14:05;101769.75;;;22.97;46.17
15193;BME280;7697;51.630;7.484;2022-07-06T11:19:09;101769.13;;;22.90;47.18
15193;BME280;7697;51.630;7.484;2022-07-06T11:24:12;101774.66;;;22.78;47.20
15193;BME280;7697;51.630;7.484;2022-07-06T11:29:17;101769.88;;;23.07;47.54
15193;BME280;7697;51.630;7.484;2022-07-06T11:34:24;101765.44;;;23.23;46.41
15193;BME280;7697;51.630;7.484;2022-07-06T11:39:27;101768.63;;;22.93;46.82
15193;BME280;7697;51.630;7.484;2022-07-06T11:44:30;101774.38;;;23.24;46.28
15193;BME280;7697;51.630;7.484;2022-07-06T11:49:33;101767.25;;;23.66;46.52
15193;BME280;7697;51.630;7.484;2022-07-06T11:54:36;101762.69;;;24.04;45.97
15193;BME280;7697;51.630;7.484;2022-07-06T11:59:40;101769.28;;;24.55;45.85
15193;BME280;7697;51.630;7.484;2022-07-06T12:04:44;101766.16;;;24.31;45.61
15193;BME280;7697;51.630;7.484;2022-07-06T12:09:47;101765.34;;;23.99;45.20
15193;BME280;7697;51.630;7.484;2022-07-06T12:14:52;101759.31;;;23.86;45.05
15193;BME280;7697;51.630;7.484;2022-07-06T12:19:54;101761.78;;;23.88;44.63
15193;BME280;7697;51.630;7.484;2022-07-06T12:24:56;101748.72;;;23.80;43.41
15193;BME280;7697;51.630;7.484;2022-07-06T12:30:10;101728.75;;;24.28;44.37
15193;BME280;7697;51.630;7.484;2022-07-06T12:35:12;101719.25;;;24.88;43.14
15193;BME280;7697;51.630;7.484;2022-07-06T12:40:15;101716.03;;;24.91;42.09
15193;BME280;7697;51.630;7.484;2022-07-06T12:45:18;101720.41;;;24.92;41.66
15193;BME280;7697;51.630;7.484;2022-07-06T12:50:20;101719.22;;;24.67;41.71
15193;BME280;7697;51.630;7.484;2022-07-06T12:55:31;101714.66;;;24.88;40.99
15193;BME280;7697;51.630;7.484;2022-07-06T13:00:45;101711.13;;;24.78;41.55
15193;BME280;7697;51.630;7.484;2022-07-06T13:05:49;101706.22;;;24.80;43.38
15193;BME280;7697;51.630;7.484;2022-07-06T13:10:51;101718.41;;;24.67;42.28
15193;BME280;7697;51.630;7.484;2022-07-06T13:15:54;101699.69;;;24.65;41.55
15193;BME280;7697;51.630;7.484;2022-07-06T13:20:56;101696.31;;;24.95;40.57
15193;BME280;7697;51.630;7.484;2022-07-06T13:25:58;101687.56;;;24.88;40.82
15193;BME280;7697;51.630;7.484;2022-07-06T13:31:01;101673.31;;;25.38;41.51
15193;BME280;7697;51.630;7.484;2022-07-06T13:36:03;101692.56;;;25.57;40.33
15193;BME280;7697;51.630;7.484;2022-07-06T13:41:05;101686.31;;;25.52;40.19
15193;BME280;7697;51.630;7.484;2022-07-06T13:46:08;101687.63;;;25.09;40.31
15193;BME280;7697;51.630;7.484;2022-07-06T13:51:10;101686.84;;;25.18;41.19
15193;BME280;7697;51.630;7.484;2022-07-06T13:56:12;101689.28;;;25.10;39.68
15193;BME280;7697;51.630;7.484;2022-07-06T14:01:16;101676.44;;;24.90;42.19
15193;BME280;7697;51.630;7.484;2022-07-06T14:06:18;101676.44;;;24.90;40.64
15193;BME280;7697;51.630;7.484;2022-07-06T14:11:20;101677.25;;;24.90;39.17
15193;BME280;7697;51.630;7.484;2022-07-06T14:16:24;101670.72;;;24.76;41.40
15193;BME280;7697;51.630;7.484;2022-07-06T14:21:26;101667.75;;;24.78;40.87
15193;BME280;7697;51.630;7.484;2022-07-06T14:26:27;101663.63;;;24.60;39.58
15193;BME280;7697;51.630;7.484;2022-07-06T14:31:31;101662.56;;;24.71;41.55
15193;BME280;7697;51.630;7.484;2022-07-06T14:36:32;101656.38;;;24.91;42.08
15193;BME280;7697;51.630;7.484;2022-07-06T14:41:34;101652.31;;;24.88;42.86
15193;BME280;7697;51.630;7.484;2022-07-06T14:46:38;101652.03;;;24.80;41.47
15193;BME280;7697;51.630;7.484;2022-07-06T14:51:40;101647.16;;;24.77;41.57
15193;BME280;7697;51.630;7.484;2022-07-06T14:56:43;101648.75;;;24.67;41.00
15193;BME280;7697;51.630;7.484;2022-07-06T15:01:46;101644.63;;;24.50;41.61
15193;BME280;7697;51.630;7.484;2022-07-06T15:06:48;101635.09;;;24.32;40.99
15193;BME280;7697;51.630;7.484;2022-07-06T15:11:50;101623.44;;;24.32;41.66
15193;BME280;7697;51.630;7.484;2022-07-06T15:16:53;101631.78;;;24.25;41.96
15193;BME280;7697;51.630;7.484;2022-07-06T15:21:55;101636.44;;;24.29;42.99
15193;BME280;7697;51.630;7.484;2022-07-06T15:26:57;101623.41;;;24.26;41.29
15193;BME280;7697;51.630;7.484;2022-07-06T15:32:00;101609.59;;;24.23;41.46
15193;BME280;7697;51.630;7.484;2022-07-06T15:37:02;101607.81;;;24.64;42.28
15193;BME280;7697;51.630;7.484;2022-07-06T15:42:05;101607.03;;;24.79;41.34
15193;BME280;7697;51.630;7.484;2022-07-06T15:47:08;101598.97;;;25.14;41.96
15193;BME280;7697;51.630;7.484;2022-07-06T15:52:10;101590.03;;;25.29;41.19
15193;BME280;7697;51.630;7.484;2022-07-06T15:57:12;101593.53;;;25.24;40.17
15193;BME280;7697;51.630;7.484;2022-07-06T16:02:15;101582.16;;;25.17;41.25
15193;BME280;7697;51.630;7.484;2022-07-06T16:07:19;101578.91;;;24.95;40.57
15193;BME280;7697;51.630;7.484;2022-07-06T16:12:21;101574.25;;;24.90;40.76
15193;BME280;7697;51.630;7.484;2022-07-06T16:17:24;101563.72;;;24.94;40.75
15193;BME280;7697;51.630;7.484;2022-07-06T16:22:26;101560.94;;;24.74;40.58
15193;BME280;7697;51.630;7.484;2022-07-06T16:27:28;101551.72;;;24.59;40.70
15193;BME280;7697;51.630;7.484;2022-07-06T16:32:33;101550.38;;;24.57;40.28
15193;BME280;7697;51.630;7.484;2022-07-06T16:37:35;101557.41;;;24.58;41.95
15193;BME280;7697;51.630;7.484;2022-07-06T16:42:36;101543.03;;;24.42;41.62
15193;BME280;7697;51.630;7.484;2022-07-06T16:47:40;101535.41;;;24.24;41.57
15193;BME280;7697;51.630;7.484;2022-07-06T16:52:42;101528.56;;;24.11;42.31
15193;BME280;7697;51.630;7.484;2022-07-06T16:57:43;101528.53;;;24.06;42.56
15193;BME280;7697;51.630;7.484;2022-07-06T17:02:46;101530.19;;;24.12;42.63
15193;BME280;7697;51.630;7.484;2022-07-06T17:07:48;101535.84;;;24.11;42.97
15193;BME280;7697;51.630;7.484;2022-07-06T17:12:50;101522.84;;;24.03;43.24
15193;BME280;7697;51.630;7.484;2022-07-06T17:17:53;101506.25;;;23.79;42.77
15193;BME280;7697;51.630;7.484;2022-07-06T17:22:55;101517.28;;;23.67;43.59
15193;BME280;7697;51.630;7.484;2022-07-06T17:27:57;101518.84;;;23.58;43.98
15193;BME280;7697;51.630;7.484;2022-07-06T17:33:00;101520.47;;;23.59;45.03
15193;BME280;7697;51.630;7.484;2022-07-06T17:38:02;101515.25;;;23.47;44.74
15193;BME280;7697;51.630;7.484;2022-07-06T17:43:04;101516.28;;;23.41;45.25
15193;BME280;7697;51.630;7.484;2022-07-06T17:48:07;101513.25;;;23.33;45.68
15193;BME280;7697;51.630;7.484;2022-07-06T17:53:09;101507.84;;;23.33;45.51
15193;BME280;7697;51.630;7.484;2022-07-06T17:58:11;101506.72;;;23.24;46.69
15193;BME280;7697;51.630;7.484;2022-07-06T18:03:16;101498.53;;;23.13;46.43
15193;BME280;7697;51.630;7.484;2022-07-06T18:08:17;101489.28;;;23.04;46.64
15193;BME280;7697;51.630;7.484;2022-07-06T18:13:19;101488.97;;;23.01;47.06
15193;BME280;7697;51.630;7.484;2022-07-06T18:18:22;101491.66;;;22.96;47.28
15193;BME280;7697;51.630;7.484;2022-07-06T18:23:25;101490.00;;;22.95;47.26
15193;BME280;7697;51.630;7.484;2022-07-06T18:28:27;101494.00;;;22.87;47.31
15193;BME280;7697;51.630;7.484;2022-07-06T18:33:31;101493.38;;;22.75;48.01
15193;BME280;7697;51.630;7.484;2022-07-06T18:38:35;101486.78;;;22.66;48.56
15193;BME280;7697;51.630;7.484;2022-07-06T18:43:37;101488.03;;;22.53;48.38
15193;BME280;7697;51.630;7.484;2022-07-06T18:48:40;101483.44;;;22.54;48.96
15193;BME280;7697;51.630;7.484;2022-07-06T18:53:42;101476.34;;;22.48;49.40
15193;BME280;7697;51.630;7.484;2022-07-06T18:58:44;101472.47;;;22.38;49.88
15193;BME280;7697;51.630;7.484;2022-07-06T19:03:50;101479.16;;;22.31;51.12
15193;BME280;7697;51.630;7.484;2022-07-06T19:08:52;101483.69;;;22.25;52.00
15193;BME280;7697;51.630;7.484;2022-07-06T19:13:54;101486.28;;;22.15;53.13
15193;BME280;7697;51.630;7.484;2022-07-06T19:18:57;101472.94;;;22.03;53.77
15193;BME280;7697;51.630;7.484;2022-07-06T19:23:59;101475.75;;;21.92;54.12
15193;BME280;7697;51.630;7.484;2022-07-06T19:29:00;101475.94;;;21.85;54.46
15193;BME280;7697;51.630;7.484;2022-07-06T19:34:03;101474.50;;;21.78;54.77
15193;BME280;7697;51.630;7.484;2022-07-06T19:39:05;101471.16;;;21.70;54.86
15193;BME280;7697;51.630;7.484;2022-07-06T19:44:07;101465.69;;;21.65;54.69
15193;BME280;7697;51.630;7.484;2022-07-06T19:49:12;101455.91;;;21.59;54.81
15193;BME280;7697;51.630;7.484;2022-07-06T19:54:13;101463.63;;;21.51;55.25
15193;BME280;7697;51.630;7.484;2022-07-06T19:59:16;101462.75;;;21.45;55.25
15193;BME280;7697;51.630;7.484;2022-07-06T20:04:19;101462.91;;;21.39;55.34
15193;BME280;7697;51.630;7.484;2022-07-06T20:09:21;101461.72;;;21.29;55.56
15193;BME280;7697;51.630;7.484;2022-07-06T20:14:22;101457.91;;;21.25;55.46
15193;BME280;7697;51.630;7.484;2022-07-06T20:19:26;101453.56;;;21.24;55.61
15193;BME280;7697;51.630;7.484;2022-07-06T20:24:27;101458.31;;;21.17;55.71
15193;BME280;7697;51.630;7.484;2022-07-06T20:29:29;101453.63;;;21.13;55.48
15193;BME280;7697;51.630;7.484;2022-07-06T20:34:32;101447.13;;;21.09;55.22
15193;BME280;7697;51.630;7.484;2022-07-06T20:39:34;101444.91;;;21.06;55.50
15193;BME280;7697;51.630;7.484;2022-07-06T20:44:36;101438.41;;;21.02;55.63
15193;BME280;7697;51.630;7.484;2022-07-06T20:49:41;101438.94;;;21.04;55.67
15193;BME280;7697;51.630;7.484;2022-07-06T20:54:43;101436.78;;;21.01;55.84
15193;BME280;7697;51.630;7.484;2022-07-06T20:59:45;101438.66;;;21.00;56.02
15193;BME280;7697;51.630;7.484;2022-07-06T21:04:48;101438.31;;;20.96;56.56
15193;BME280;7697;51.630;7.484;2022-07-06T21:09:53;101429.94;;;20.93;56.29
15193;BME280;7697;51.630;7.484;2022-07-06T21:14:55;101419.63;;;20.90;56.40
15193;BME280;7697;51.630;7.484;2022-07-06T21:19:58;101415.66;;;20.92;56.41
15193;BME280;7697;51.630;7.484;2022-07-06T21:25:00;101412.63;;;20.89;56.28
15193;BME280;7697;51.630;7.484;2022-07-06T21:30:04;101417.19;;;20.88;56.51
15193;BME280;7697;51.630;7.484;2022-07-06T21:35:08;101410.41;;;20.86;56.81
15193;BME280;7697;51.630;7.484;2022-07-06T21:40:10;101400.38;;;20.81;56.77
15193;BME280;7697;51.630;7.484;2022-07-06T21:45:20;101397.94;;;20.80;57.27
15193;BME280;7697;51.630;7.484;2022-07-06T21:50:24;101400.06;;;20.78;57.05
15193;BME280;7697;51.630;7.484;2022-07-06T21:55:25;101392.97;;;20.72;57.52
15193;BME280;7697;51.630;7.484;2022-07-06T22:00:27;101388.31;;;20.67;57.22
15193;BME280;7697;51.630;7.484;2022-07-06T22:05:31;101386.13;;;20.64;57.61
15193;BME280;7697;51.630;7.484;2022-07-06T22:10:36;101379.59;;;20.60;57.87
15193;BME280;7697;51.630;7.484;2022-07-06T22:15:38;101379.28;;;20.56;57.90
15193;BME280;7697;51.630;7.484;2022-07-06T22:20:41;101374.97;;;20.55;57.83
15193;BME280;7697;51.630;7.484;2022-07-06T22:25:55;101367.13;;;20.54;58.21
15193;BME280;7697;51.630;7.484;2022-07-06T22:30:57;101362.72;;;20.48;58.69
15193;BME280;7697;51.630;7.484;2022-07-06T22:36:00;101356.78;;;20.46;59.36
15193;BME280;7697;51.630;7.484;2022-07-06T22:41:03;101365.84;;;20.40;59.91
15193;BME280;7697;51.630;7.484;2022-07-06T22:46:06;101350.97;;;20.37;60.60
15193;BME280;7697;51.630;7.484;2022-07-06T22:51:10;101341.28;;;20.36;60.61
15193;BME280;7697;51.630;7.484;2022-07-06T22:56:13;101345.22;;;20.34;61.04
15193;BME280;7697;51.630;7.484;2022-07-06T23:01:16;101343.59;;;20.33;60.84
15193;BME280;7697;51.630;7.484;2022-07-06T23:06:21;101341.16;;;20.31;61.23
15193;BME280;7697;51.630;7.484;2022-07-06T23:11:23;101333.34;;;20.30;61.05
15193;BME280;7697;51.630;7.484;2022-07-06T23:16:25;101335.22;;;20.29;61.29
15193;BME280;7697;51.630;7.484;2022-07-06T23:21:28;101333.88;;;20.32;61.42
15193;BME280;7697;51.630;7.484;2022-07-06T23:26:30;101325.81;;;20.32;61.61
15193;BME280;7697;51.630;7.484;2022-07-06T23:31:32;101306.91;;;20.27;62.18
15193;BME280;7697;51.630;7.484;2022-07-06T23:36:35;101304.69;;;20.23;62.27
15193;BME280;7697;51.630;7.484;2022-07-06T23:41:36;101296.31;;;20.20;63.05
15193;BME280;7697;51.630;7.484;2022-07-06T23:46:38;101291.91;;;20.14;63.48
15193;BME280;7697;51.630;7.484;2022-07-06T23:51:41;101284.41;;;20.16;63.20
15193;BME280;7697;51.630;7.484;2022-07-06T23:56:43;101276.69;;;20.19;63.20
